Time;durP1;ratioP1;P1;durP2;ratioP2;P2;SDS_P1;SDS_P2;PMS_P1;PMS_P2;Temp;Humidity;BMP_temperature;BMP_pressure;BME280_temperature;BME280_humidity;BME280_pressure;Samples;Min_cycle;Max_cycle;Signal;HPM_P1;HPM_P2
2022/02/21 00:00:17;;;;;;;1.85;0.35;;;;;;;;;;5057456;28;20106;-79
2022/02/21 00:02:46;;;;;;;0.70;0.32;;;;;;;;;;5058201;28;20053;-79
2022/02/21 00:05:16;;;;;;;0.40;0.40;;;;;;;;;;5063642;28;20459;-79
2022/02/21 00:07:48;;;;;;;0.17;0.17;;;;;;;;;;5059257;28;20445;-79
2022/02/21 00:10:21;;;;;;;0.40;0.40;;;;;;;;;;5059691;28;20057;-79
2022/02/21 00:12:47;;;;;;;0.40;0.40;;;;;;;;;;5057636;28;20106;-79
2022/02/21 00:15:23;;;;;;;0.40;0.35;;;;;;;;;;5060301;28;20072;-79
2022/02/21 00:17:51;;;;;;;0.55;0.38;;;;;;;;;;5058933;28;20048;-78
2022/02/21 00:20:18;;;;;;;;;;;;;;;;;;5060073;28;20076;-79
2022/02/21 00:22:47;;;;;;;0.20;0.20;;;;;;;;;;5057584;28;19935;-79
2022/02/21 00:25:17;;;;;;;3.40;0.45;;;;;;;;;;5058121;28;20044;-79
2022/02/21 00:27:43;;;;;;;0.30;0.30;;;;;;;;;;5059391;28;20080;-79
2022/02/21 00:30:11;;;;;;;1.27;0.50;;;;;;;;;;5059263;28;20072;-79
2022/02/21 00:32:38;;;;;;;0.75;0.50;;;;;;;;;;5059920;28;20255;-79
2022/02/21 00:35:05;;;;;;;0.50;0.50;;;;;;;;;;5059671;28;20665;-79
2022/02/21 00:37:37;;;;;;;0.68;0.60;;;;;;;;;;5057718;28;20140;-79
2022/02/21 00:40:04;;;;;;;0.90;0.63;;;;;;;;;;5061854;28;20144;-79
2022/02/21 00:42:31;;;;;;;0.87;0.80;;;;;;;;;;5057655;28;20514;-79
2022/02/21 00:45:00;;;;;;;1.92;0.90;;;;;;;;;;5059127;28;20287;-79
2022/02/21 00:47:27;;;;;;;0.60;0.60;;;;;;;;;;5057287;28;20057;-78
2022/02/21 00:49:54;;;;;;;0.50;0.50;;;;;;;;;;5060817;28;20048;-78
2022/02/21 00:52:21;;;;;;;1.13;0.80;;;;;;;;;;5060870;28;20167;-79
2022/02/21 00:54:48;;;;;;;0.70;0.60;;;;;;;;;;5056575;28;20078;-79
2022/02/21 00:57:14;;;;;;;2.60;0.73;;;;;;;;;;5056286;28;20379;-79
2022/02/21 00:59:48;;;;;;;1.20;0.60;;;;;;;;;;5058940;28;20079;-78
2022/02/21 01:02:15;;;;;;;0.63;0.63;;;;;;;;;;5062507;28;20076;-79
2022/02/21 01:04:41;;;;;;;0.85;0.60;;;;;;;;;;5056301;28;20083;-78
2022/02/21 01:07:21;;;;;;;8.88;0.82;;;;;;;;;;5056526;28;20422;-77
2022/02/21 01:09:47;;;;;;;0.95;0.60;;;;;;;;;;5057832;28;20115;-79
2022/02/21 01:12:14;;;;;;;0.82;0.70;;;;;;;;;;5056633;28;20804;-79
2022/02/21 01:14:47;;;;;;;0.65;0.60;;;;;;;;;;5060453;28;20076;-79
2022/02/21 01:17:13;;;;;;;1.27;0.60;;;;;;;;;;5045138;28;20080;-79
2022/02/21 01:19:39;;;;;;;0.77;0.77;;;;;;;;;;5063755;28;20131;-78
2022/02/21 01:22:07;;;;;;;1.25;0.60;;;;;;;;;;5063057;28;20569;-79
2022/02/21 01:24:34;;;;;;;0.85;0.73;;;;;;;;;;5059443;28;20122;-78
2022/02/21 01:27:00;;;;;;;0.70;0.70;;;;;;;;;;5046816;28;20068;-78
2022/02/21 01:29:27;;;;;;;0.70;0.70;;;;;;;;;;5064607;28;20143;-78
2022/02/21 01:31:54;;;;;;;0.80;0.68;;;;;;;;;;5062471;28;20131;-79
2022/02/21 01:34:23;;;;;;;40.77;2.80;;;;;;;;;;5064554;28;20127;-79
2022/02/21 01:36:57;;;;;;;12.80;1.00;;;;;;;;;;5064272;28;20081;-79
2022/02/21 01:39:23;;;;;;;5.97;0.90;;;;;;;;;;5061825;28;20131;-79
2022/02/21 01:41:50;;;;;;;12.25;1.23;;;;;;;;;;5061956;28;20587;-79
2022/02/21 01:44:17;;;;;;;283.73;11.07;;;;;;;;;;5063891;28;20110;-78
2022/02/21 01:46:43;;;;;;;2.65;0.80;;;;;;;;;;5058755;28;20132;-78
2022/02/21 01:49:11;;;;;;;0.80;0.80;;;;;;;;;;5050361;28;20064;-78
2022/02/21 01:51:41;;;;;;;0.80;0.73;;;;;;;;;;5061798;28;20140;-77
2022/02/21 01:54:08;;;;;;;2.05;0.70;;;;;;;;;;5064053;28;20693;-78
2022/02/21 01:56:35;;;;;;;0.80;0.80;;;;;;;;;;5058459;28;20442;-78
2022/02/21 01:59:05;;;;;;;1.63;1.00;;;;;;;;;;5059544;28;20049;-77
2022/02/21 02:01:32;;;;;;;0.77;0.77;;;;;;;;;;5046554;28;20128;-77
2022/02/21 02:03:59;;;;;;;1.42;1.05;;;;;;;;;;5047942;28;20072;-77
2022/02/21 02:06:32;;;;;;;0.93;0.90;;;;;;;;;;5060276;28;20247;-78
2022/02/21 02:08:59;;;;;;;1.58;0.85;;;;;;;;;;5058480;28;20071;-78
2022/02/21 02:11:26;;;;;;;89.97;4.88;;;;;;;;;;5060058;28;20537;-78
2022/02/21 02:13:59;;;;;;;167.02;6.60;;;;;;;;;;5060982;28;21156;-77
2022/02/21 02:16:26;;;;;;;133.45;4.07;;;;;;;;;;5061097;28;20465;-77
2022/02/21 02:18:57;;;;;;;188.70;8.20;;;;;;;;;;5062729;28;20040;-78
2022/02/21 02:21:27;;;;;;;151.38;7.82;;;;;;;;;;5058993;28;20084;-78
2022/02/21 02:23:54;;;;;;;100.95;5.13;;;;;;;;;;5060025;28;20044;-78
2022/02/21 02:26:22;;;;;;;3.22;1.20;;;;;;;;;;5059817;28;20678;-78
2022/02/21 02:28:52;;;;;;;10.20;1.25;;;;;;;;;;5057609;28;20041;-77
2022/02/21 02:31:18;;;;;;;;;;;;;;;;;;5065006;28;20132;-78
2022/02/21 02:33:45;;;;;;;59.08;2.45;;;;;;;;;;5061339;28;20010;-77
2022/02/21 02:36:17;;;;;;;45.33;2.47;;;;;;;;;;5061033;28;20060;-78
2022/02/21 02:38:44;;;;;;;2.67;0.90;;;;;;;;;;5061464;28;20072;-77
2022/02/21 02:41:11;;;;;;;1.40;1.10;;;;;;;;;;5058026;28;20183;-78
2022/02/21 02:43:38;;;;;;;1.50;1.05;;;;;;;;;;5057342;28;20136;-77
2022/02/21 02:46:05;;;;;;;2.15;1.20;;;;;;;;;;5046520;28;20084;-78
2022/02/21 02:48:34;;;;;;;1.33;1.15;;;;;;;;;;5063990;28;20084;-78
2022/02/21 02:51:01;;;;;;;26.60;2.05;;;;;;;;;;5059368;28;20053;-79
2022/02/21 02:53:31;;;;;;;185.95;11.60;;;;;;;;;;5058511;28;20099;-77
2022/02/21 02:55:57;;;;;;;178.18;6.15;;;;;;;;;;5060564;28;20385;-79
2022/02/21 02:58:26;;;;;;;126.50;4.53;;;;;;;;;;5060102;28;20076;-77
2022/02/21 03:00:52;;;;;;;142.50;7.03;;;;;;;;;;5061953;28;20136;-78
2022/02/21 03:03:19;;;;;;;214.85;7.82;;;;;;;;;;5058708;28;20098;-79
2022/02/21 03:05:46;;;;;;;295.27;11.85;;;;;;;;;;5062488;28;20144;-78
2022/02/21 03:08:13;;;;;;;60.60;4.18;;;;;;;;;;5059705;28;20575;-78
2022/02/21 03:10:39;;;;;;;95.28;5.70;;;;;;;;;;5060026;28;20646;-79
2022/02/21 03:13:12;;;;;;;348.00;13.82;;;;;;;;;;5059191;28;20082;-77
2022/02/21 03:15:39;;;;;;;320.38;15.48;;;;;;;;;;5059155;28;20052;-77
2022/02/21 03:18:05;;;;;;;227.52;9.25;;;;;;;;;;5057409;28;20083;-78
2022/02/21 03:20:39;;;;;;;347.40;12.70;;;;;;;;;;5060948;28;20084;-78
2022/02/21 03:23:05;;;;;;;398.27;15.97;;;;;;;;;;5057960;28;20139;-78
2022/02/21 03:25:31;;;;;;;273.10;10.85;;;;;;;;;;5059756;28;20083;-77
2022/02/21 03:28:05;;;;;;;279.95;12.52;;;;;;;;;;5059602;28;20152;-77
2022/02/21 03:30:31;;;;;;;207.35;11.23;;;;;;;;;;5057312;28;20092;-78
2022/02/21 03:32:57;;;;;;;193.80;9.98;;;;;;;;;;5057861;28;20140;-77
2022/02/21 03:35:24;;;;;;;74.50;4.25;;;;;;;;;;5057471;28;20083;-77
2022/02/21 03:37:51;;;;;;;34.10;2.63;;;;;;;;;;5060314;28;20503;-78
2022/02/21 03:40:17;;;;;;;147.77;7.53;;;;;;;;;;5059323;28;20064;-78
2022/02/21 03:42:44;;;;;;;136.93;7.03;;;;;;;;;;5058865;28;20144;-77
2022/02/21 03:45:11;;;;;;;184.30;8.25;;;;;;;;;;5059411;28;20584;-77
2022/02/21 03:47:37;;;;;;;145.77;7.38;;;;;;;;;;5060885;28;20147;-77
2022/02/21 03:50:05;;;;;;;74.10;5.55;;;;;;;;;;5060507;28;20063;-77
2022/02/21 03:52:31;;;;;;;323.45;16.20;;;;;;;;;;5060581;28;20303;-77
2022/02/21 03:54:58;;;;;;;32.15;4.32;;;;;;;;;;5058677;28;20139;-76
2022/02/21 03:57:26;;;;;;;9.30;4.03;;;;;;;;;;5058135;28;20087;-78
2022/02/21 03:59:52;;;;;;;13.35;4.13;;;;;;;;;;5059092;28;20098;-76
2022/02/21 04:02:21;;;;;;;15.85;4.63;;;;;;;;;;5061863;28;20072;-77
2022/02/21 04:04:54;;;;;;;6.88;3.22;;;;;;;;;;5059592;28;20143;-77
2022/02/21 04:07:21;;;;;;;8.82;3.00;;;;;;;;;;5056432;28;20076;-77
2022/02/21 04:09:47;;;;;;;9.57;2.78;;;;;;;;;;5056130;28;20436;-76
2022/02/21 04:12:21;;;;;;;5.15;2.40;;;;;;;;;;5059704;28;20176;-77
2022/02/21 04:14:47;;;;;;;6.50;2.33;;;;;;;;;;5057311;28;20139;-76
2022/02/21 04:17:14;;;;;;;4.07;1.88;;;;;;;;;;5058100;28;20068;-77
2022/02/21 04:19:47;;;;;;;3.72;1.85;;;;;;;;;;5059595;28;20102;-76
2022/02/21 04:22:14;;;;;;;3.65;1.77;;;;;;;;;;5049173;28;20135;-76
2022/02/21 04:24:41;;;;;;;2.33;1.20;;;;;;;;;;5060837;28;20458;-77
2022/02/21 04:27:13;;;;;;;2.85;0.90;;;;;;;;;;5056592;28;20577;-78
2022/02/21 04:29:40;;;;;;;2.63;1.17;;;;;;;;;;5055961;28;20179;-77
2022/02/21 04:32:07;;;;;;;2.72;1.00;;;;;;;;;;5058428;28;20139;-77
2022/02/21 04:34:35;;;;;;;2.13;0.98;;;;;;;;;;5058657;28;20559;-77
2022/02/21 04:37:01;;;;;;;1.90;1.17;;;;;;;;;;5058010;28;20089;-76
2022/02/21 04:39:27;;;;;;;4.50;1.58;;;;;;;;;;5059886;28;20159;-77
2022/02/21 04:42:01;;;;;;;4.10;1.60;;;;;;;;;;5053882;28;20068;-76
2022/02/21 04:44:27;;;;;;;2.88;1.55;;;;;;;;;;5060719;28;20083;-77
2022/02/21 04:46:55;;;;;;;3.53;1.48;;;;;;;;;;5058590;28;20140;-78
2022/02/21 04:49:21;;;;;;;1.15;1.00;;;;;;;;;;5064751;28;20439;-77
2022/02/21 04:51:48;;;;;;;5.00;1.17;;;;;;;;;;5063589;28;20448;-76
2022/02/21 04:54:14;;;;;;;2.38;0.90;;;;;;;;;;5063324;28;20564;-76
2022/02/21 04:56:47;;;;;;;2.33;1.48;;;;;;;;;;5065307;28;20131;-76
2022/02/21 04:59:14;;;;;;;1.52;0.88;;;;;;;;;;5069866;28;20087;-76
2022/02/21 05:01:40;;;;;;;2.70;1.40;;;;;;;;;;5064911;28;20091;-76
2022/02/21 05:04:13;;;;;;;4.70;2.10;;;;;;;;;;5059068;28;20140;-76
2022/02/21 05:06:40;;;;;;;2.65;1.77;;;;;;;;;;5059325;28;20441;-76
2022/02/21 05:09:06;;;;;;;2.85;1.38;;;;;;;;;;5060922;28;20132;-76
2022/02/21 05:11:39;;;;;;;0.73;0.73;;;;;;;;;;5060766;28;20491;-76
2022/02/21 05:14:06;;;;;;;1.60;0.93;;;;;;;;;;5064586;28;20131;-77
2022/02/21 05:16:32;;;;;;;2.08;1.10;;;;;;;;;;5064125;28;20564;-77
2022/02/21 05:19:05;;;;;;;2.20;1.13;;;;;;;;;;5062519;28;20160;-75
2022/02/21 05:21:32;;;;;;;2.38;1.08;;;;;;;;;;5065206;28;20106;-76
2022/02/21 05:23:58;;;;;;;2.92;1.08;;;;;;;;;;5061956;28;20168;-76
2022/02/21 05:26:25;;;;;;;1.27;1.00;;;;;;;;;;5062405;28;20555;-76
2022/02/21 05:28:52;;;;;;;1.40;1.10;;;;;;;;;;5064037;28;20147;-75
2022/02/21 05:31:19;;;;;;;3.58;1.80;;;;;;;;;;5060404;28;20540;-75
2022/02/21 05:33:45;;;;;;;5.25;2.08;;;;;;;;;;5060827;28;20147;-75
2022/02/21 05:36:12;;;;;;;2.55;1.77;;;;;;;;;;5057103;28;20080;-76
2022/02/21 05:38:38;;;;;;;2.47;1.52;;;;;;;;;;5060912;28;20622;-76
2022/02/21 05:41:05;;;;;;;6.28;1.45;;;;;;;;;;5061692;28;20048;-76
2022/02/21 05:43:32;;;;;;;2.42;1.50;;;;;;;;;;5061056;28;20087;-76
2022/02/21 05:45:58;;;;;;;2.72;1.67;;;;;;;;;;5062825;28;20535;-76
2022/02/21 05:48:25;;;;;;;2.97;1.08;;;;;;;;;;5048279;28;20140;-76
2022/02/21 05:50:51;;;;;;;2.97;1.17;;;;;;;;;;5061300;28;20187;-76
2022/02/21 05:53:18;;;;;;;1.73;0.93;;;;;;;;;;5062008;28;20087;-76
2022/02/21 05:55:51;;;;;;;2.92;0.98;;;;;;;;;;5060030;28;20076;-76
2022/02/21 05:58:17;;;;;;;1.33;0.73;;;;;;;;;;5059764;28;20519;-76
2022/02/21 06:00:46;;;;;;;0.50;0.50;;;;;;;;;;5062871;28;20074;-79
2022/02/21 06:03:19;;;;;;;2.28;0.57;;;;;;;;;;5060182;28;20045;-76
2022/02/21 06:05:48;;;;;;;2.80;0.60;;;;;;;;;;5060665;28;20091;-76
2022/02/21 06:08:14;;;;;;;0.98;0.80;;;;;;;;;;5059967;28;20075;-76
2022/02/21 06:10:42;;;;;;;1.95;1.15;;;;;;;;;;5061262;28;20114;-76
2022/02/21 06:13:08;;;;;;;2.17;1.75;;;;;;;;;;5059131;28;20144;-76
2022/02/21 06:15:35;;;;;;;2.88;1.02;;;;;;;;;;5061848;28;20072;-75
2022/02/21 06:18:02;;;;;;;1.55;0.50;;;;;;;;;;5062359;28;20135;-76
2022/02/21 06:20:28;;;;;;;2.78;0.93;;;;;;;;;;5058890;28;20587;-76
2022/02/21 06:22:55;;;;;;;1.27;1.10;;;;;;;;;;5057957;28;20049;-76
2022/02/21 06:25:22;;;;;;;4.25;0.80;;;;;;;;;;5058035;28;20139;-76
2022/02/21 06:27:48;;;;;;;2.72;1.27;;;;;;;;;;5057799;28;20104;-76
2022/02/21 06:30:15;;;;;;;2.38;1.60;;;;;;;;;;5058841;28;20171;-76
2022/02/21 06:32:47;;;;;;;1.88;1.10;;;;;;;;;;5062087;28;20092;-76
2022/02/21 06:35:14;;;;;;;3.10;1.35;;;;;;;;;;5058428;28;20499;-76
2022/02/21 06:37:42;;;;;;;2.30;1.15;;;;;;;;;;5057541;28;20508;-76
2022/02/21 06:40:22;;;;;;;2.58;1.40;;;;;;;;;;5044235;28;20098;-76
2022/02/21 06:42:50;;;;;;;2.70;1.13;;;;;;;;;;5055836;28;20060;-76
2022/02/21 06:45:19;;;;;;;1.15;1.00;;;;;;;;;;5058985;28;20047;-76
2022/02/21 06:47:50;;;;;;;1.90;1.17;;;;;;;;;;5058232;28;20063;-76
2022/02/21 06:50:17;;;;;;;1.02;0.80;;;;;;;;;;5057026;28;20133;-75
2022/02/21 06:52:44;;;;;;;0.77;0.75;;;;;;;;;;5057510;28;20080;-75
2022/02/21 06:55:12;;;;;;;1.52;1.08;;;;;;;;;;5056721;28;20074;-76
2022/02/21 06:57:46;;;;;;;1.52;0.90;;;;;;;;;;5060321;28;20156;-76
2022/02/21 07:00:14;;;;;;;0.90;0.75;;;;;;;;;;5059208;28;20408;-75
2022/02/21 07:02:40;;;;;;;1.85;0.73;;;;;;;;;;5056047;28;20660;-76
2022/02/21 07:05:08;;;;;;;0.70;0.70;;;;;;;;;;5056591;28;20203;-75
2022/02/21 07:07:34;;;;;;;0.70;0.70;;;;;;;;;;5055364;28;20177;-76
2022/02/21 07:10:01;;;;;;;0.80;0.80;;;;;;;;;;5053293;28;20135;-75
2022/02/21 07:12:28;;;;;;;0.80;0.80;;;;;;;;;;5056916;28;20053;-75
2022/02/21 07:14:55;;;;;;;1.10;1.00;;;;;;;;;;5056908;28;20144;-75
2022/02/21 07:17:22;;;;;;;;;;;;;;;;;;5058695;28;20490;-75
2022/02/21 07:19:56;;;;;;;1.00;0.90;;;;;;;;;;5056669;28;20011;-76
2022/02/21 07:22:23;;;;;;;0.85;0.80;;;;;;;;;;5057047;28;20052;-75
2022/02/21 07:24:50;;;;;;;0.50;0.50;;;;;;;;;;5056735;28;20139;-75
2022/02/21 07:27:26;;;;;;;3.28;0.88;;;;;;;;;;5055515;28;20076;-75
2022/02/21 07:29:52;;;;;;;0.57;0.57;;;;;;;;;;5053990;28;20139;-76
2022/02/21 07:32:19;;;;;;;0.98;0.68;;;;;;;;;;5056166;28;20131;-75
2022/02/21 07:34:52;;;;;;;1.25;0.93;;;;;;;;;;5055988;28;20072;-75
2022/02/21 07:37:18;;;;;;;0.67;0.67;;;;;;;;;;5037941;28;20135;-75
2022/02/21 07:39:44;;;;;;;0.63;0.63;;;;;;;;;;5055592;28;20152;-75
2022/02/21 07:42:18;;;;;;;1.73;0.60;;;;;;;;;;5055178;28;20080;-75
2022/02/21 07:44:44;;;;;;;0.80;0.80;;;;;;;;;;5056498;28;20139;-75
2022/02/21 07:47:10;;;;;;;0.45;0.45;;;;;;;;;;5056486;28;20174;-75
2022/02/21 07:49:37;;;;;;;0.73;0.60;;;;;;;;;;5046861;28;20076;-75
2022/02/21 07:52:04;;;;;;;1.00;0.88;;;;;;;;;;5060430;28;20399;-76
2022/02/21 07:54:30;;;;;;;0.50;0.50;;;;;;;;;;5057473;28;20587;-75
2022/02/21 07:57:07;;;;;;;0.70;0.70;;;;;;;;;;5057623;28;20106;-76
2022/02/21 07:59:34;;;;;;;1.10;0.60;;;;;;;;;;5058407;28;20155;-75
2022/02/21 08:02:00;;;;;;;1.45;0.60;;;;;;;;;;5056182;28;20144;-75
2022/02/21 08:04:27;;;;;;;2.03;0.60;;;;;;;;;;5057133;28;20195;-75
2022/02/21 08:06:53;;;;;;;0.65;0.65;;;;;;;;;;5059782;28;20053;-75
2022/02/21 08:09:20;;;;;;;0.63;0.63;;;;;;;;;;5058072;28;20131;-76
2022/02/21 08:11:54;;;;;;;0.40;0.40;;;;;;;;;;5057021;28;20448;-76
2022/02/21 08:14:22;;;;;;;1.05;0.50;;;;;;;;;;5056076;28;20460;-75
2022/02/21 08:16:48;;;;;;;0.50;0.50;;;;;;;;;;5057087;28;20565;-75
2022/02/21 08:19:24;;;;;;;1.65;0.43;;;;;;;;;;5056689;28;20048;-75
2022/02/21 08:21:52;;;;;;;0.40;0.40;;;;;;;;;;5057239;28;20098;-75
2022/02/21 08:24:21;;;;;;;0.45;0.45;;;;;;;;;;5056078;28;20072;-75
2022/02/21 08:26:55;;;;;;;0.75;0.75;;;;;;;;;;5057025;28;20079;-75
2022/02/21 08:29:24;;;;;;;1.52;0.75;;;;;;;;;;5054785;28;20044;-75
2022/02/21 08:31:51;;;;;;;0.97;0.40;;;;;;;;;;5055151;28;20063;-76
2022/02/21 08:34:22;;;;;;;2.08;0.50;;;;;;;;;;5056125;28;20474;-75
2022/02/21 08:36:48;;;;;;;0.50;0.50;;;;;;;;;;5056602;28;20149;-75
2022/02/21 08:39:15;;;;;;;0.80;0.80;;;;;;;;;;5055377;28;20499;-76
2022/02/21 08:41:54;;;;;;;0.35;0.35;;;;;;;;;;5054511;28;20157;-76
2022/02/21 08:44:21;;;;;;;0.40;0.40;;;;;;;;;;5055606;28;20057;-76
2022/02/21 08:46:47;;;;;;;0.65;0.63;;;;;;;;;;5055107;28;20555;-76
2022/02/21 08:49:21;;;;;;;0.88;0.85;;;;;;;;;;5056771;28;20152;-75
2022/02/21 08:51:47;;;;;;;3.95;0.70;;;;;;;;;;5037216;28;20164;-75
2022/02/21 08:54:13;;;;;;;1.80;1.25;;;;;;;;;;5055047;28;20147;-75
2022/02/21 08:56:44;;;;;;;2.10;1.17;;;;;;;;;;5055302;28;20163;-76
2022/02/21 08:59:10;;;;;;;1.07;0.73;;;;;;;;;;5055959;28;20044;-75
2022/02/21 09:01:42;;;;;;;0.88;0.77;;;;;;;;;;5058796;28;20148;-75
2022/02/21 09:04:10;;;;;;;0.57;0.50;;;;;;;;;;5053845;28;20044;-75
2022/02/21 09:06:36;;;;;;;0.40;0.40;;;;;;;;;;5055237;28;20577;-75
2022/02/21 09:09:03;;;;;;;0.40;0.40;;;;;;;;;;5053183;28;20477;-75
2022/02/21 09:11:37;;;;;;;0.45;0.45;;;;;;;;;;5055132;28;20132;-76
2022/02/21 09:14:03;;;;;;;0.32;0.32;;;;;;;;;;5054529;28;20131;-75
2022/02/21 09:16:29;;;;;;;0.50;0.50;;;;;;;;;;5054031;28;20044;-75
2022/02/21 09:19:03;;;;;;;0.50;0.50;;;;;;;;;;5056660;28;20254;-75
2022/02/21 09:21:29;;;;;;;0.50;0.50;;;;;;;;;;5055299;28;20572;-75
2022/02/21 09:23:55;;;;;;;0.57;0.50;;;;;;;;;;5058940;28;20083;-75
2022/02/21 09:26:22;;;;;;;0.60;0.60;;;;;;;;;;5053648;28;20137;-75
2022/02/21 09:28:48;;;;;;;0.40;0.40;;;;;;;;;;5054947;28;20140;-75
2022/02/21 09:31:15;;;;;;;0.63;0.40;;;;;;;;;;5055986;28;20402;-75
2022/02/21 09:33:43;;;;;;;0.93;0.50;;;;;;;;;;5055855;28;20139;-75
2022/02/21 09:36:10;;;;;;;0.50;0.50;;;;;;;;;;5058577;28;20131;-76
2022/02/21 09:38:36;;;;;;;0.63;0.57;;;;;;;;;;5059126;28;20456;-75
2022/02/21 09:41:05;;;;;;;0.63;0.57;;;;;;;;;;5059829;28;20564;-74
2022/02/21 09:43:31;;;;;;;0.50;0.50;;;;;;;;;;5063866;28;20127;-75
2022/02/21 09:46:07;;;;;;;0.40;0.40;;;;;;;;;;5060566;28;20090;-75
2022/02/21 09:48:42;;;;;;;2.72;0.68;;;;;;;;;;5058680;28;20081;-75
2022/02/21 09:51:08;;;;;;;1.00;0.63;;;;;;;;;;5058788;28;20092;-75
2022/02/21 09:53:36;;;;;;;0.57;0.57;;;;;;;;;;5057233;28;20137;-75
2022/02/21 09:56:05;;;;;;;0.52;0.52;;;;;;;;;;5059144;28;20048;-75
2022/02/21 09:58:32;;;;;;;3.67;0.70;;;;;;;;;;5060880;28;20075;-75
2022/02/21 10:00:59;;;;;;;0.90;0.80;;;;;;;;;;5041220;28;20052;-74
2022/02/21 10:03:37;;;;;;;0.77;0.77;;;;;;;;;;5058653;28;20052;-75
2022/02/21 10:06:17;;;;;;;1.25;0.77;;;;;;;;;;5058856;28;20075;-75
2022/02/21 10:08:51;;;;;;;0.88;0.68;;;;;;;;;;5057914;28;20127;-75
2022/02/21 10:11:32;;;;;;;0.43;0.43;;;;;;;;;;5057953;28;20599;-75
2022/02/21 10:14:27;;;;;;;0.32;0.32;;;;;;;;;;5061186;28;20143;-75
2022/02/21 10:16:55;;;;;;;0.50;0.47;;;;;;;;;;5043300;28;20110;-75
2022/02/21 10:19:30;;;;;;;1.15;0.93;;;;;;;;;;5060023;28;20056;-74
2022/02/21 10:22:07;;;;;;;1.88;0.90;;;;;;;;;;5063463;28;20129;-74
2022/02/21 10:24:44;;;;;;;0.90;0.65;;;;;;;;;;5058839;28;20087;-75
2022/02/21 10:27:24;;;;;;;1.50;0.93;;;;;;;;;;5062799;28;20083;-74
2022/02/21 10:29:53;;;;;;;0.77;0.70;;;;;;;;;;5058525;28;20135;-74
2022/02/21 10:32:21;;;;;;;1.73;1.02;;;;;;;;;;5057248;28;20106;-74
2022/02/21 10:34:49;;;;;;;1.27;1.00;;;;;;;;;;5057555;28;20075;-75
2022/02/21 10:37:22;;;;;;;0.80;0.80;;;;;;;;;;5061834;28;20561;-75
2022/02/21 10:39:48;;;;;;;3.13;0.90;;;;;;;;;;5060861;28;20092;-74
2022/02/21 10:42:24;;;;;;;0.88;0.80;;;;;;;;;;5056488;28;20079;-74
2022/02/21 10:45:08;;;;;;;2.60;0.90;;;;;;;;;;5037381;28;20053;-75
2022/02/21 10:47:35;;;;;;;0.80;0.80;;;;;;;;;;5057429;28;20163;-74
2022/02/21 10:50:04;;;;;;;0.70;0.70;;;;;;;;;;5060183;28;20132;-74
2022/02/21 10:52:31;;;;;;;0.65;0.65;;;;;;;;;;5057696;28;20082;-74
2022/02/21 10:54:58;;;;;;;1.92;0.80;;;;;;;;;;5057564;28;20076;-74
2022/02/21 10:57:27;;;;;;;1.65;0.88;;;;;;;;;;5058161;28;20047;-74
2022/02/21 10:59:54;;;;;;;0.60;0.60;;;;;;;;;;5056174;28;20055;-74
2022/02/21 11:02:21;;;;;;;1.10;1.00;;;;;;;;;;5056229;28;20135;-74
2022/02/21 11:04:55;;;;;;;3.08;0.90;;;;;;;;;;5056924;28;20040;-74
2022/02/21 11:07:22;;;;;;;1.02;0.82;;;;;;;;;;5057160;28;20084;-74
2022/02/21 11:09:50;;;;;;;0.77;0.77;;;;;;;;;;5056326;28;20056;-73
2022/02/21 11:12:23;;;;;;;0.60;0.60;;;;;;;;;;5040017;28;20135;-74
2022/02/21 11:14:49;;;;;;;2.33;0.80;;;;;;;;;;5055138;28;20125;-74
2022/02/21 11:17:17;;;;;;;1.35;1.00;;;;;;;;;;5055771;28;20080;-74
2022/02/21 11:19:51;;;;;;;1.92;0.82;;;;;;;;;;5056046;28;20119;-74
2022/02/21 11:22:17;;;;;;;2.80;0.85;;;;;;;;;;5056370;28;20116;-74
2022/02/21 11:24:48;;;;;;;3.27;1.00;;;;;;;;;;5056251;28;20133;-74
2022/02/21 11:27:30;;;;;;;1.13;0.93;;;;;;;;;;5058727;28;20080;-74
2022/02/21 11:30:02;;;;;;;1.95;1.15;;;;;;;;;;5058739;28;20110;-74
2022/02/21 11:32:35;;;;;;;4.63;0.90;;;;;;;;;;5056018;28;20135;-74
2022/02/21 11:35:12;;;;;;;2.05;1.15;;;;;;;;;;5056397;28;20125;-74
2022/02/21 11:37:46;;;;;;;1.30;1.20;;;;;;;;;;5056050;28;20135;-74
2022/02/21 11:40:27;;;;;;;1.83;0.88;;;;;;;;;;5056561;28;20072;-74
2022/02/21 11:43:24;;;;;;;3.70;0.95;;;;;;;;;;5056236;28;20151;-74
2022/02/21 11:45:54;;;;;;;3.25;1.10;;;;;;;;;;5056906;28;20040;-74
2022/02/21 11:48:21;;;;;;;1.77;0.98;;;;;;;;;;5058818;28;20091;-74
2022/02/21 11:50:47;;;;;;;2.20;1.30;;;;;;;;;;5059884;28;20785;-73
2022/02/21 11:53:29;;;;;;;3.35;1.10;;;;;;;;;;5054547;28;20142;-74
2022/02/21 11:55:58;;;;;;;1.27;1.08;;;;;;;;;;5054320;28;20348;-74
2022/02/21 11:58:26;;;;;;;7.82;1.13;;;;;;;;;;5055403;28;20209;-74
2022/02/21 12:00:55;;;;;;;1.52;1.17;;;;;;;;;;5034179;28;20102;-74
2022/02/21 12:03:25;;;;;;;1.58;0.90;;;;;;;;;;5056593;28;20048;-74
2022/02/21 12:05:58;;;;;;;1.73;1.35;;;;;;;;;;5054500;28;20454;-78
2022/02/21 12:08:44;;;;;;;5.10;1.20;;;;;;;;;;5053891;28;20545;-74
2022/02/21 12:11:13;;;;;;;1.30;1.02;;;;;;;;;;5060951;28;20518;-74
2022/02/21 12:13:47;;;;;;;2.70;1.27;;;;;;;;;;5058416;28;20493;-74
2022/02/21 12:16:15;;;;;;;2.08;1.58;;;;;;;;;;5056577;28;20080;-74
2022/02/21 12:18:42;;;;;;;1.42;0.93;;;;;;;;;;5055851;28;20052;-74
2022/02/21 12:21:18;;;;;;;2.20;1.52;;;;;;;;;;5060172;28;20129;-75
2022/02/21 12:24:00;;;;;;;3.15;0.98;;;;;;;;;;5054100;28;20588;-74
2022/02/21 12:26:27;;;;;;;1.23;1.10;;;;;;;;;;5059389;28;20049;-74
2022/02/21 12:29:12;;;;;;;2.10;0.88;;;;;;;;;;5056494;28;20131;-74
2022/02/21 12:31:59;;;;;;;1.23;0.90;;;;;;;;;;5056431;28;20463;-75
2022/02/21 12:34:28;;;;;;;2.28;1.00;;;;;;;;;;5055866;28;20080;-74
2022/02/21 12:37:04;;;;;;;1.65;0.90;;;;;;;;;;5057879;28;20048;-74
2022/02/21 12:39:40;;;;;;;1.25;1.08;;;;;;;;;;5062625;28;20057;-75
2022/02/21 12:42:08;;;;;;;2.03;1.08;;;;;;;;;;5058961;28;20598;-74
2022/02/21 12:44:35;;;;;;;1.75;0.80;;;;;;;;;;5054824;28;20080;-74
2022/02/21 12:47:05;;;;;;;1.15;0.95;;;;;;;;;;5056734;28;20041;-74
2022/02/21 12:49:34;;;;;;;1.40;0.90;;;;;;;;;;5063921;28;20131;-74
2022/02/21 12:52:08;;;;;;;2.28;1.27;;;;;;;;;;5056381;28;20044;-74
2022/02/21 12:54:36;;;;;;;1.42;0.93;;;;;;;;;;5056354;28;21474;-74
2022/02/21 12:57:03;;;;;;;1.50;1.00;;;;;;;;;;5055124;28;20507;-74
2022/02/21 12:59:31;;;;;;;2.97;0.90;;;;;;;;;;5055100;28;20149;-74
2022/02/21 13:02:05;;;;;;;3.45;1.08;;;;;;;;;;5055277;28;20056;-74
2022/02/21 13:04:33;;;;;;;2.78;1.10;;;;;;;;;;5053352;28;20571;-74
2022/02/21 13:07:01;;;;;;;1.05;0.73;;;;;;;;;;5056364;28;20114;-74
2022/02/21 13:09:34;;;;;;;2.97;0.73;;;;;;;;;;5058322;28;20114;-74
2022/02/21 13:12:01;;;;;;;0.75;0.75;;;;;;;;;;5058538;28;20068;-74
2022/02/21 13:14:31;;;;;;;0.50;0.50;;;;;;;;;;5059204;28;20135;-74
2022/02/21 13:17:06;;;;;;;1.35;0.70;;;;;;;;;;5058510;28;20598;-74
2022/02/21 13:19:37;;;;;;;0.73;0.60;;;;;;;;;;5064272;28;20102;-74
2022/02/21 13:22:05;;;;;;;0.95;0.60;;;;;;;;;;5061889;28;20084;-74
2022/02/21 13:24:35;;;;;;;0.40;0.40;;;;;;;;;;5060419;28;20698;-74
2022/02/21 13:27:06;;;;;;;0.82;0.70;;;;;;;;;;5057703;28;20101;-74
2022/02/21 13:29:41;;;;;;;1.02;0.68;;;;;;;;;;5058070;28;20056;-74
2022/02/21 13:32:08;;;;;;;0.70;0.50;;;;;;;;;;5056815;28;20064;-74
2022/02/21 13:34:51;;;;;;;2.33;0.80;;;;;;;;;;5059824;28;20591;-74
2022/02/21 13:37:24;;;;;;;1.25;0.80;;;;;;;;;;5057028;28;20422;-74
2022/02/21 13:40:03;;;;;;;0.55;0.55;;;;;;;;;;5058171;28;20058;-74
2022/02/21 13:42:36;;;;;;;1.02;0.80;;;;;;;;;;5058033;28;20048;-74
2022/02/21 13:45:21;;;;;;;2.72;0.90;;;;;;;;;;5059532;28;20599;-75
2022/02/21 13:48:14;;;;;;;1.40;0.82;;;;;;;;;;5059650;28;20059;-74
2022/02/21 13:50:43;;;;;;;1.60;0.95;;;;;;;;;;5053903;28;20135;-74
2022/02/21 13:53:14;;;;;;;0.75;0.60;;;;;;;;;;5058278;28;20165;-75
2022/02/21 13:55:42;;;;;;;1.15;0.85;;;;;;;;;;5057346;28;20443;-74
2022/02/21 13:58:11;;;;;;;1.67;0.70;;;;;;;;;;5058350;28;20123;-74
2022/02/21 14:00:39;;;;;;;0.70;0.70;;;;;;;;;;5058057;28;20083;-74
2022/02/21 14:03:09;;;;;;;0.98;0.80;;;;;;;;;;5056745;28;20520;-74
2022/02/21 14:05:59;;;;;;;0.50;0.50;;;;;;;;;;5059688;28;20076;-74
2022/02/21 14:08:46;;;;;;;0.60;0.60;;;;;;;;;;5064268;28;20617;-74
2022/02/21 14:11:17;;;;;;;1.15;0.60;;;;;;;;;;5060499;28;20503;-74
2022/02/21 14:13:51;;;;;;;0.55;0.55;;;;;;;;;;5059133;28;20694;-74
2022/02/21 14:16:17;;;;;;;1.38;0.77;;;;;;;;;;5059250;28;20142;-75
2022/02/21 14:18:44;;;;;;;1.67;0.63;;;;;;;;;;5059496;28;20040;-74
2022/02/21 14:21:17;;;;;;;0.63;0.63;;;;;;;;;;5061003;28;20331;-74
2022/02/21 14:23:49;;;;;;;0.93;0.57;;;;;;;;;;5059200;28;20264;-75
2022/02/21 14:26:17;;;;;;;0.50;0.50;;;;;;;;;;5062819;28;20087;-75
2022/02/21 14:28:43;;;;;;;;;;;;;;;;;;5059720;28;20044;-74
2022/02/21 14:31:10;;;;;;;1.08;0.60;;;;;;;;;;5060587;28;19924;-74
2022/02/21 14:33:36;;;;;;;1.38;0.60;;;;;;;;;;5056681;28;20053;-74
2022/02/21 14:36:03;;;;;;;0.68;0.68;;;;;;;;;;5063025;28;20136;-74
2022/02/21 14:38:30;;;;;;;1.27;0.80;;;;;;;;;;5058144;28;20087;-74
2022/02/21 14:40:57;;;;;;;1.52;0.80;;;;;;;;;;5056157;28;20044;-74
2022/02/21 14:43:25;;;;;;;0.80;0.80;;;;;;;;;;5057541;28;20139;-74
2022/02/21 14:45:52;;;;;;;0.60;0.60;;;;;;;;;;5058720;28;20045;-74
2022/02/21 14:48:19;;;;;;;0.50;0.50;;;;;;;;;;5061269;28;20049;-74
2022/02/21 14:51:06;;;;;;;0.60;0.60;;;;;;;;;;5055348;28;20488;-74
2022/02/21 14:53:33;;;;;;;1.98;1.33;;;;;;;;;;5056204;28;20804;-74